createdAt,value
2018-12-15T00:00:43.306Z,100363.22
2018-12-15T00:03:10.746Z,100361.10
2018-12-15T00:05:38.179Z,100360.72
2018-12-15T00:08:05.631Z,100358.95
2018-12-15T00:10:33.229Z,100359.19
2018-12-15T00:13:00.670Z,100352.80
2018-12-15T00:15:28.081Z,100352.92
2018-12-15T00:17:55.523Z,100353.01
2018-12-15T00:20:23.004Z,100357.92
2018-12-15T00:22:50.430Z,100360.20
2018-12-15T00:25:18.793Z,100357.19
2018-12-15T00:27:46.260Z,100356.67
2018-12-15T00:30:14.832Z,100358.85
2018-12-15T00:32:41.154Z,100362.73
2018-12-15T00:35:08.580Z,100365.63
2018-12-15T00:37:36.055Z,100375.08
2018-12-15T00:40:03.500Z,100373.00
2018-12-15T00:42:31.901Z,100373.34
2018-12-15T00:44:59.354Z,100372.27
2018-12-15T00:47:26.804Z,100376.72
2018-12-15T00:49:54.225Z,100376.52
2018-12-15T00:52:21.674Z,100376.47
2018-12-15T00:54:49.135Z,100377.27
2018-12-15T00:57:16.571Z,100380.33
2018-12-15T00:59:44.020Z,100383.56
2018-12-15T01:02:11.424Z,100383.14
2018-12-15T01:04:38.881Z,100382.73
2018-12-15T01:07:06.311Z,100382.39
2018-12-15T01:09:33.772Z,100390.67
2018-12-15T01:12:01.205Z,100391.08
2018-12-15T01:14:28.676Z,100398.12
2018-12-15T01:16:56.103Z,100392.98
2018-12-15T01:19:23.530Z,100397.06
2018-12-15T01:21:51.065Z,100398.16
2018-12-15T01:24:18.460Z,100404.91
2018-12-15T01:26:45.907Z,100395.88
2018-12-15T01:29:13.325Z,100401.48
2018-12-15T01:31:40.790Z,100407.63
2018-12-15T01:34:08.226Z,100406.27
2018-12-15T01:36:35.669Z,100412.67
2018-12-15T01:39:03.107Z,100416.08
2018-12-15T01:41:30.607Z,100418.35
2018-12-15T01:43:58.071Z,100427.59
2018-12-15T01:46:25.531Z,100424.06
2018-12-15T01:48:53.051Z,100433.59
2018-12-15T01:51:20.508Z,100440.16
2018-12-15T01:53:47.940Z,100438.72
2018-12-15T01:56:15.421Z,100438.38
2018-12-15T01:58:42.835Z,100437.33
2018-12-15T02:01:10.278Z,100436.26
2018-12-15T02:03:37.707Z,100437.55
2018-12-15T02:06:05.146Z,100437.54
2018-12-15T02:08:32.569Z,100437.69
2018-12-15T02:11:00.065Z,100436.93
2018-12-15T02:13:28.460Z,100434.29
2018-12-15T02:15:55.912Z,100437.48
2018-12-15T02:18:23.336Z,100431.73
2018-12-15T02:20:50.787Z,100427.73
2018-12-15T02:23:18.821Z,100435.50
2018-12-15T02:25:46.285Z,100435.90
2018-12-15T02:28:13.705Z,100438.19
2018-12-15T02:30:41.154Z,100435.94
2018-12-15T02:33:08.594Z,100435.52
2018-12-15T02:35:36.036Z,100437.67
2018-12-15T02:38:03.468Z,100431.62
2018-12-15T02:40:30.921Z,100434.58
2018-12-15T02:42:58.338Z,100431.43
2018-12-15T02:45:25.788Z,100435.94
2018-12-15T02:47:54.025Z,100437.95
2018-12-15T02:50:21.560Z,100431.89
2018-12-15T02:52:49.027Z,100437.48
2018-12-15T02:55:16.495Z,100434.52
2018-12-15T02:57:43.908Z,100427.42
2018-12-15T03:00:11.348Z,100428.27
2018-12-15T03:02:38.784Z,100425.75
2018-12-15T03:05:06.238Z,100429.05
2018-12-15T03:07:33.674Z,100425.53
2018-12-15T03:10:01.108Z,100424.39
2018-12-15T03:12:28.529Z,100417.53
2018-12-15T03:14:55.954Z,100417.28
2018-12-15T03:17:23.417Z,100414.31
2018-12-15T03:19:50.832Z,100418.94
2018-12-15T03:22:18.274Z,100413.45
2018-12-15T03:24:45.701Z,100417.38
2018-12-15T03:27:13.146Z,100412.92
2018-12-15T03:29:40.668Z,100415.63
2018-12-15T03:32:08.112Z,100407.08
2018-12-15T03:34:35.519Z,100407.41
2018-12-15T03:37:02.984Z,100414.13
2018-12-15T03:39:30.421Z,100399.03
2018-12-15T03:41:57.858Z,100398.71
2018-12-15T03:44:25.301Z,100399.16
2018-12-15T03:46:52.727Z,100392.83
2018-12-15T03:49:20.150Z,100391.47
2018-12-15T03:51:47.593Z,100390.24
2018-12-15T03:54:15.051Z,100399.08
2018-12-15T03:56:42.494Z,100391.23
2018-12-15T03:59:09.916Z,100390.31
2018-12-15T04:01:37.370Z,100383.16
2018-12-15T04:04:04.813Z,100377.25
2018-12-15T04:06:32.243Z,100387.73
2018-12-15T04:08:59.652Z,100385.27
2018-12-15T04:11:27.097Z,100381.84
2018-12-15T04:13:54.531Z,100380.17
2018-12-15T04:16:22.065Z,100381.50
2018-12-15T04:18:49.518Z,100381.42
2018-12-15T04:21:16.955Z,100376.75
2018-12-15T04:23:44.402Z,100375.08
2018-12-15T04:26:11.819Z,100376.16
2018-12-15T04:28:39.279Z,100372.70
2018-12-15T04:31:06.728Z,100375.47
2018-12-15T04:33:34.190Z,100374.12
2018-12-15T04:36:01.627Z,100385.39
2018-12-15T04:38:29.062Z,100373.43
2018-12-15T04:40:56.495Z,100375.40
2018-12-15T04:43:23.935Z,100379.72
2018-12-15T04:45:51.369Z,100386.64
2018-12-15T04:48:18.821Z,100385.33
2018-12-15T04:50:46.345Z,100384.23
2018-12-15T04:53:13.863Z,100384.89
2018-12-15T04:55:41.277Z,100381.34
2018-12-15T04:58:08.730Z,100381.86
2018-12-15T05:00:36.163Z,100377.91
2018-12-15T05:03:03.625Z,100377.23
2018-12-15T05:05:31.066Z,100371.18
2018-12-15T05:07:58.504Z,100378.86
2018-12-15T05:10:25.917Z,100370.64
2018-12-15T05:12:54.425Z,100367.90
2018-12-15T05:15:21.836Z,100375.70
2018-12-15T05:17:49.288Z,100376.28
2018-12-15T05:20:16.734Z,100377.85
2018-12-15T05:22:44.195Z,100370.80
2018-12-15T05:25:11.634Z,100377.86
2018-12-15T05:27:39.077Z,100384.67
2018-12-15T05:30:06.527Z,100383.05
2018-12-15T05:32:33.980Z,100379.53
2018-12-15T05:35:02.338Z,100381.92
2018-12-15T05:37:29.863Z,100382.75
2018-12-15T05:39:57.303Z,100379.48
2018-12-15T05:42:24.764Z,100380.36
2018-12-15T05:44:52.204Z,100370.78
2018-12-15T05:47:19.626Z,100378.03
2018-12-15T05:49:47.078Z,100381.20
2018-12-15T05:52:14.503Z,100377.70
2018-12-15T05:54:41.936Z,100383.08
2018-12-15T05:57:09.372Z,100379.84
2018-12-15T05:59:36.808Z,100376.94
2018-12-15T06:02:04.229Z,100375.42
2018-12-15T06:04:31.691Z,100378.33
2018-12-15T06:06:59.129Z,100381.63
2018-12-15T06:09:26.558Z,100378.69
2018-12-15T06:11:54.011Z,100375.45
2018-12-15T06:14:21.435Z,100378.00
2018-12-15T06:16:48.887Z,100382.27
2018-12-15T06:19:16.298Z,100386.97
2018-12-15T06:21:43.789Z,100379.83
2018-12-15T06:24:11.211Z,100381.90
2018-12-15T06:26:38.639Z,100383.58
2018-12-15T06:29:06.162Z,100387.95
2018-12-15T06:31:33.637Z,100383.70
2018-12-15T06:34:01.096Z,100388.95
2018-12-15T06:36:28.558Z,100387.75
2018-12-15T06:38:55.997Z,100380.98
2018-12-15T06:41:23.449Z,100379.23
2018-12-15T06:43:50.879Z,100378.05
2018-12-15T06:46:18.340Z,100380.67
2018-12-15T06:48:45.810Z,100380.84
2018-12-15T06:51:13.246Z,100383.25
2018-12-15T06:53:40.698Z,100387.00
2018-12-15T06:56:08.220Z,100386.57
2018-12-15T06:58:35.636Z,100386.05
2018-12-15T07:01:03.057Z,100383.88
2018-12-15T07:03:30.496Z,100384.94
2018-12-15T07:05:57.923Z,100381.71
2018-12-15T07:08:25.698Z,100380.95
2018-12-15T07:10:53.145Z,100377.69
2018-12-15T07:13:20.589Z,100370.52
2018-12-15T07:15:48.003Z,100377.94
2018-12-15T07:18:15.494Z,100375.39
2018-12-15T07:20:42.923Z,100376.69
2018-12-15T07:23:10.385Z,100379.13
2018-12-15T07:25:37.824Z,100378.80
2018-12-15T07:28:06.594Z,100385.89
2018-12-15T07:30:34.225Z,100383.17
2018-12-15T07:33:01.663Z,100387.77
2018-12-15T07:35:29.094Z,100386.89
2018-12-15T07:37:56.565Z,100388.69
2018-12-15T07:40:23.989Z,100382.69
2018-12-15T07:42:51.409Z,100383.95
2018-12-15T07:45:19.039Z,100392.59
2018-12-15T07:47:46.526Z,100391.28
2018-12-15T07:50:15.102Z,100397.09
2018-12-15T07:52:42.742Z,100397.45
2018-12-15T07:55:10.165Z,100398.48
2018-12-15T07:57:37.611Z,100398.08
2018-12-15T08:00:05.053Z,100395.48
2018-12-15T08:02:32.462Z,100391.20
2018-12-15T08:04:59.924Z,100387.73
2018-12-15T08:07:27.419Z,100389.69
2018-12-15T08:09:54.826Z,100393.34
2018-12-15T08:12:27.891Z,100393.34
2018-12-15T08:14:55.340Z,100393.63
2018-12-15T08:17:22.766Z,100397.25
2018-12-15T08:19:50.207Z,100402.34
2018-12-15T08:22:17.629Z,100398.73
2018-12-15T08:24:45.059Z,100403.66
2018-12-15T08:27:12.609Z,100405.64
2018-12-15T08:29:40.073Z,100407.16
2018-12-15T08:32:07.508Z,100410.10
2018-12-15T08:34:34.957Z,100405.80
2018-12-15T08:37:02.399Z,100400.39
2018-12-15T08:39:29.829Z,100405.83
2018-12-15T08:41:57.298Z,100401.84
2018-12-15T08:44:24.727Z,100405.78
2018-12-15T08:46:52.195Z,100409.00
2018-12-15T08:49:19.604Z,100414.77
2018-12-15T08:51:47.070Z,100413.15
2018-12-15T08:54:14.506Z,100412.75
2018-12-15T08:56:41.952Z,100417.18
2018-12-15T08:59:09.384Z,100416.80
2018-12-15T09:01:36.825Z,100417.39
2018-12-15T09:04:04.293Z,100412.67
2018-12-15T09:06:31.765Z,100417.81
2018-12-15T09:08:59.505Z,100423.77
2018-12-15T09:11:26.969Z,100421.31
2018-12-15T09:13:54.418Z,100427.92
2018-12-15T09:16:26.390Z,100425.21
2018-12-15T09:18:49.403Z,100424.20
2018-12-15T09:21:17.714Z,100426.39
2018-12-15T09:23:45.241Z,100423.06
2018-12-15T09:26:12.686Z,100414.80
2018-12-15T09:28:40.134Z,100426.33
2018-12-15T09:31:07.556Z,100430.23
2018-12-15T09:33:35.015Z,100428.78
2018-12-15T09:36:02.595Z,100428.04
2018-12-15T09:38:30.032Z,100433.35
2018-12-15T09:40:57.498Z,100432.25
2018-12-15T09:43:24.923Z,100432.06
2018-12-15T09:45:52.440Z,100427.47
2018-12-15T09:48:20.623Z,100436.20
2018-12-15T09:50:48.162Z,100428.23
2018-12-15T09:53:15.643Z,100430.35
2018-12-15T09:55:43.231Z,100428.17
2018-12-15T09:58:10.669Z,100429.00
2018-12-15T10:00:38.133Z,100424.22
2018-12-15T10:03:05.610Z,100422.72
2018-12-15T10:05:33.064Z,100415.30
2018-12-15T10:08:00.512Z,100408.58
2018-12-15T10:10:27.946Z,100413.20
2018-12-15T10:12:55.376Z,100414.02
2018-12-15T10:15:22.834Z,100411.09
2018-12-15T10:17:50.268Z,100401.73
2018-12-15T10:20:17.722Z,100389.63
2018-12-15T10:22:45.180Z,100391.42
2018-12-15T10:25:12.647Z,100390.56
2018-12-15T10:27:40.102Z,100382.23
2018-12-15T10:30:13.178Z,100383.87
2018-12-15T10:32:46.311Z,100376.16
2018-12-15T10:35:13.767Z,100369.19
2018-12-15T10:37:41.265Z,100368.23
2018-12-15T10:40:08.745Z,100361.23
2018-12-15T10:42:36.193Z,100356.02
2018-12-15T10:45:03.699Z,100355.91
2018-12-15T10:47:31.254Z,100349.81
2018-12-15T10:49:58.697Z,100341.59
2018-12-15T10:52:26.139Z,100347.83
2018-12-15T10:54:53.597Z,100335.81
2018-12-15T10:57:21.011Z,100334.63
2018-12-15T10:59:48.497Z,100335.34
2018-12-15T11:02:15.917Z,100341.63
2018-12-15T11:04:43.365Z,100347.23
2018-12-15T11:07:10.813Z,100341.95
2018-12-15T11:09:38.266Z,100344.22
2018-12-15T11:12:05.684Z,100334.78
2018-12-15T11:14:33.148Z,100344.77
2018-12-15T11:17:00.569Z,100341.58
2018-12-15T11:19:28.031Z,100341.14
2018-12-15T11:21:55.475Z,100339.23
2018-12-15T11:24:23.200Z,100335.09
2018-12-15T11:26:50.644Z,100332.31
2018-12-15T11:29:19.073Z,100325.98
2018-12-15T11:31:46.538Z,100322.81
2018-12-15T11:34:13.988Z,100323.97
2018-12-15T11:36:42.429Z,100324.95
2018-12-15T11:39:09.957Z,100320.66
2018-12-15T11:41:37.420Z,100309.64
2018-12-15T11:44:04.868Z,100297.44
2018-12-15T11:46:32.334Z,100288.92
2018-12-15T11:48:59.777Z,100278.13
2018-12-15T11:51:27.212Z,100281.52
2018-12-15T11:53:54.647Z,100274.16
2018-12-15T11:56:22.059Z,100271.00
2018-12-15T11:58:49.498Z,100272.09
2018-12-15T12:01:16.920Z,100267.08
2018-12-15T12:03:44.382Z,100264.59
2018-12-15T12:06:11.794Z,100265.50
2018-12-15T12:08:39.259Z,100252.84
2018-12-15T12:11:07.003Z,100245.89
2018-12-15T12:13:34.443Z,100241.78
2018-12-15T12:16:01.906Z,100231.49
2018-12-15T12:18:29.360Z,100233.70
2018-12-15T12:20:56.828Z,100225.35
2018-12-15T12:23:24.267Z,100219.19
2018-12-15T12:25:51.738Z,100210.74
2018-12-15T12:28:19.187Z,100213.78
2018-12-15T12:30:46.654Z,100220.80
2018-12-15T12:33:14.119Z,100217.29
2018-12-15T12:35:41.558Z,100205.53
2018-12-15T12:38:08.990Z,100206.99
2018-12-15T12:40:36.854Z,100209.06
2018-12-15T12:43:04.284Z,100208.17
2018-12-15T12:45:31.739Z,100202.22
2018-12-15T12:47:59.164Z,100204.43
2018-12-15T12:50:26.621Z,100198.43
2018-12-15T12:52:54.073Z,100200.58
2018-12-15T12:55:21.530Z,100199.38
2018-12-15T12:57:48.947Z,100203.56
2018-12-15T13:00:16.382Z,100204.22
2018-12-15T13:02:43.795Z,100199.03
2018-12-15T13:05:11.266Z,100198.62
2018-12-15T13:07:38.678Z,100198.30
2018-12-15T13:10:06.141Z,100196.52
2018-12-15T13:12:33.600Z,100187.58
2018-12-15T13:15:01.011Z,100189.07
2018-12-15T13:17:28.475Z,100193.95
2018-12-15T13:19:55.887Z,100194.25
2018-12-15T13:22:23.326Z,100194.25
2018-12-15T13:24:50.774Z,100196.23
2018-12-15T13:27:19.167Z,100197.44
2018-12-15T13:29:46.597Z,100196.84
2018-12-15T13:32:14.037Z,100192.44
2018-12-15T13:34:41.497Z,100193.63
2018-12-15T13:37:08.922Z,100194.63
2018-12-15T13:39:36.380Z,100195.91
2018-12-15T13:42:03.786Z,100193.45
2018-12-15T13:44:31.239Z,100178.36
2018-12-15T13:46:58.665Z,100167.59
2018-12-15T13:49:26.096Z,100166.37
2018-12-15T13:51:53.569Z,100162.78
2018-12-15T13:54:20.991Z,100164.44
2018-12-15T13:56:48.449Z,100162.17
2018-12-15T13:59:15.867Z,100159.78
2018-12-15T14:01:44.406Z,100163.87
2018-12-15T14:04:11.941Z,100163.39
2018-12-15T14:06:39.476Z,100150.03
2018-12-15T14:09:06.931Z,100151.83
2018-12-15T14:11:34.403Z,100145.84
2018-12-15T14:14:01.846Z,100138.54
2018-12-15T14:16:29.265Z,100138.65
2018-12-15T14:18:56.698Z,100143.00
2018-12-15T14:21:24.153Z,100143.88
2018-12-15T14:23:51.567Z,100135.73
2018-12-15T14:26:19.001Z,100132.70
2018-12-15T14:28:46.462Z,100136.88
2018-12-15T14:31:13.892Z,100118.63
2018-12-15T14:33:41.328Z,100122.97
2018-12-15T14:36:08.762Z,100116.30
2018-12-15T14:38:36.210Z,100119.67
2018-12-15T14:41:03.649Z,100108.39
2018-12-15T14:43:31.112Z,100105.36
2018-12-15T14:45:58.554Z,100113.72
2018-12-15T14:48:25.989Z,100098.84
2018-12-15T14:50:53.489Z,100093.07
2018-12-15T14:53:20.968Z,100083.63
2018-12-15T14:55:48.403Z,100083.84
2018-12-15T14:58:16.664Z,100081.66
2018-12-15T15:00:44.215Z,100078.06
2018-12-15T15:03:11.634Z,100067.66
2018-12-15T15:05:39.083Z,100055.94
2018-12-15T15:08:06.513Z,100060.55
2018-12-15T15:10:33.963Z,100053.56
2018-12-15T15:13:01.393Z,100046.27
2018-12-15T15:15:28.841Z,100046.05
2018-12-15T15:17:56.277Z,100035.77
2018-12-15T15:20:29.647Z,100039.35
2018-12-15T15:22:51.160Z,100039.88
2018-12-15T15:25:19.162Z,100020.16
2018-12-15T15:27:46.580Z,100014.70
2018-12-15T15:30:14.048Z,100022.42
2018-12-15T15:32:41.487Z,100012.16
2018-12-15T15:35:08.900Z,100017.44
2018-12-15T15:37:36.343Z,100012.11
2018-12-15T15:40:03.785Z,100008.83
2018-12-15T15:42:31.249Z,100004.37
2018-12-15T15:44:58.673Z,99994.36
2018-12-15T15:47:26.127Z,99993.78
2018-12-15T15:49:53.604Z,99987.36
2018-12-15T15:52:21.053Z,99994.23
2018-12-15T15:54:48.513Z,99992.39
2018-12-15T15:57:15.960Z,99983.59
2018-12-15T15:59:43.392Z,99982.20
2018-12-15T16:02:10.823Z,99973.84
2018-12-15T16:04:38.257Z,99979.00
2018-12-15T16:07:06.120Z,99976.20
2018-12-15T16:09:33.569Z,99976.20
2018-12-15T16:12:01.022Z,99974.00
2018-12-15T16:14:28.471Z,99955.22
2018-12-15T16:16:55.908Z,99952.95
2018-12-15T16:19:23.361Z,99955.86
2018-12-15T16:21:50.798Z,99949.93
2018-12-15T16:24:18.235Z,99954.03
2018-12-15T16:26:45.653Z,99947.52
2018-12-15T16:29:13.110Z,99937.64
2018-12-15T16:31:40.524Z,99925.78
2018-12-15T16:34:07.951Z,99917.75
2018-12-15T16:36:35.397Z,99901.01
2018-12-15T16:39:02.865Z,99894.28
2018-12-15T16:41:30.392Z,99895.34
2018-12-15T16:43:57.852Z,99901.45
2018-12-15T16:46:25.277Z,99902.55
2018-12-15T16:48:52.739Z,99902.03
2018-12-15T16:51:20.177Z,99905.84
2018-12-15T16:53:48.702Z,99905.27
2018-12-15T16:56:16.166Z,99901.91
2018-12-15T16:58:43.593Z,99901.47
2018-12-15T17:01:11.109Z,99892.59
2018-12-15T17:03:38.856Z,99889.61
2018-12-15T17:06:06.338Z,99893.72
2018-12-15T17:08:33.784Z,99890.48
2018-12-15T17:11:01.202Z,99896.28
2018-12-15T17:13:29.844Z,99892.00
2018-12-15T17:15:57.435Z,99897.36
2018-12-15T17:18:24.897Z,99895.48
2018-12-15T17:20:56.682Z,99896.51
2018-12-15T17:23:19.867Z,99880.94
2018-12-15T17:25:47.287Z,99887.56
2018-12-15T17:28:14.734Z,99880.80
2018-12-15T17:30:42.172Z,99875.82
2018-12-15T17:33:09.582Z,99860.71
2018-12-15T17:35:37.055Z,99855.11
2018-12-15T17:38:04.481Z,99857.42
2018-12-15T17:40:31.910Z,99854.87
2018-12-15T17:42:59.351Z,99842.91
2018-12-15T17:45:26.869Z,99842.06
2018-12-15T17:47:54.334Z,99838.12
2018-12-15T17:50:21.739Z,99823.59
2018-12-15T17:52:49.192Z,99822.78
2018-12-15T17:55:16.631Z,99814.55
2018-12-15T17:57:44.059Z,99819.74
2018-12-15T18:00:11.515Z,99805.64
2018-12-15T18:02:38.922Z,99802.06
2018-12-15T18:05:06.375Z,99790.79
2018-12-15T18:07:33.825Z,99782.53
2018-12-15T18:10:01.288Z,99787.98
2018-12-15T18:12:28.691Z,99778.63
2018-12-15T18:14:56.128Z,99783.64
2018-12-15T18:17:23.566Z,99778.05
2018-12-15T18:19:51.013Z,99766.25
2018-12-15T18:22:18.431Z,99768.02
2018-12-15T18:24:45.872Z,99760.73
2018-12-15T18:27:13.298Z,99758.86
2018-12-15T18:29:40.737Z,99747.22
2018-12-15T18:32:09.007Z,99748.80
2018-12-15T18:34:36.462Z,99743.24
2018-12-15T18:37:03.898Z,99726.59
2018-12-15T18:39:31.321Z,99726.28
2018-12-15T18:41:58.757Z,99722.95
2018-12-15T18:44:26.205Z,99723.77
2018-12-15T18:46:54.673Z,99717.73
2018-12-15T18:49:22.103Z,99704.58
2018-12-15T18:51:49.506Z,99702.33
2018-12-15T18:54:16.993Z,99680.42
2018-12-15T18:56:44.398Z,99673.85
2018-12-15T18:59:11.848Z,99678.97
2018-12-15T19:01:39.271Z,99669.22
2018-12-15T19:04:06.682Z,99666.31
2018-12-15T19:06:34.130Z,99661.77
2018-12-15T19:09:04.211Z,99659.55
2018-12-15T19:11:29.953Z,99671.25
2018-12-15T19:13:57.385Z,99661.17
2018-12-15T19:16:24.833Z,99654.80
2018-12-15T19:18:52.246Z,99654.41
2018-12-15T19:21:22.975Z,99655.86
2018-12-15T19:23:47.169Z,99651.13
2018-12-15T19:26:14.598Z,99643.31
2018-12-15T19:28:42.057Z,99641.66
2018-12-15T19:31:09.490Z,99632.53
2018-12-15T19:33:36.925Z,99633.87
2018-12-15T19:36:04.376Z,99637.42
2018-12-15T19:38:31.840Z,99631.84
2018-12-15T19:40:59.272Z,99625.09
2018-12-15T19:43:26.729Z,99637.98
2018-12-15T19:45:54.134Z,99634.16
2018-12-15T19:48:21.562Z,99627.73
2018-12-15T19:50:48.976Z,99625.43
2018-12-15T19:53:16.417Z,99620.44
2018-12-15T19:55:44.640Z,99613.98
2018-12-15T19:58:12.166Z,99608.20
2018-12-15T20:00:39.582Z,99606.02
2018-12-15T20:03:07.019Z,99590.89
2018-12-15T20:05:34.437Z,99593.89
2018-12-15T20:08:01.870Z,99577.33
2018-12-15T20:10:29.297Z,99566.22
2018-12-15T20:12:56.727Z,99565.26
2018-12-15T20:15:24.145Z,99558.70
2018-12-15T20:17:52.425Z,99549.88
2018-12-15T20:20:19.962Z,99550.33
2018-12-15T20:22:47.382Z,99550.79
2018-12-15T20:25:15.954Z,99551.30
2018-12-15T20:27:43.443Z,99548.46
2018-12-15T20:30:10.868Z,99544.10
2018-12-15T20:32:38.314Z,99541.09
2018-12-15T20:35:05.746Z,99538.73
2018-12-15T20:37:33.151Z,99532.19
2018-12-15T20:40:00.574Z,99527.81
2018-12-15T20:42:27.992Z,99522.02
2018-12-15T20:44:55.421Z,99517.39
2018-12-15T20:47:27.911Z,99515.09
2018-12-15T20:49:51.050Z,99523.91
2018-12-15T20:52:18.477Z,99521.77
2018-12-15T20:54:45.973Z,99512.77
2018-12-15T20:57:13.379Z,99501.23
2018-12-15T20:59:40.783Z,99502.27
2018-12-15T21:02:08.251Z,99490.04
2018-12-15T21:04:35.665Z,99492.22
2018-12-15T21:07:03.086Z,99477.06
2018-12-15T21:09:30.648Z,99460.30
2018-12-15T21:11:58.139Z,99465.97
2018-12-15T21:14:25.569Z,99459.52
2018-12-15T21:16:52.986Z,99467.33
2018-12-15T21:19:20.445Z,99463.98
2018-12-15T21:21:49.728Z,99455.09
2018-12-15T21:24:15.335Z,99442.84
2018-12-15T21:26:42.747Z,99443.66
2018-12-15T21:29:10.273Z,99439.95
2018-12-15T21:31:37.671Z,99426.80
2018-12-15T21:34:08.027Z,99417.39
2018-12-15T21:36:34.394Z,99416.45
2018-12-15T21:39:01.823Z,99418.49
2018-12-15T21:41:29.260Z,99413.43
2018-12-15T21:43:56.689Z,99402.17
2018-12-15T21:46:24.137Z,99409.06
2018-12-15T21:48:51.549Z,99400.87
2018-12-15T21:51:19.013Z,99396.36
2018-12-15T21:53:46.449Z,99391.25
2018-12-15T21:56:13.880Z,99383.13
2018-12-15T21:58:41.312Z,99385.59
2018-12-15T22:01:08.778Z,99373.38
2018-12-15T22:03:36.232Z,99371.25
2018-12-15T22:06:03.642Z,99364.16
2018-12-15T22:08:31.175Z,99360.58
2018-12-15T22:10:58.678Z,99356.62
2018-12-15T22:13:26.112Z,99351.34
2018-12-15T22:15:53.551Z,99342.95
2018-12-15T22:18:21.029Z,99341.74
2018-12-15T22:20:48.449Z,99335.59
2018-12-15T22:23:15.890Z,99327.83
2018-12-15T22:25:43.315Z,99317.50
2018-12-15T22:28:10.762Z,99319.45
2018-12-15T22:30:38.208Z,99310.34
2018-12-15T22:33:05.649Z,99310.83
2018-12-15T22:35:33.075Z,99299.24
2018-12-15T22:38:00.505Z,99296.40
2018-12-15T22:40:27.951Z,99296.05
2018-12-15T22:42:55.415Z,99281.44
2018-12-15T22:45:22.896Z,99284.30
2018-12-15T22:47:50.307Z,99277.77
2018-12-15T22:50:17.729Z,99270.65
2018-12-15T22:52:45.166Z,99261.19
2018-12-15T22:55:12.577Z,99237.27
2018-12-15T22:57:40.149Z,99241.28
2018-12-15T23:00:07.573Z,99239.03
2018-12-15T23:02:35.025Z,99237.56
2018-12-15T23:05:02.533Z,99252.64
2018-12-15T23:07:30.931Z,99235.72
2018-12-15T23:09:58.421Z,99240.56
2018-12-15T23:12:25.848Z,99232.19
2018-12-15T23:14:53.285Z,99229.41
2018-12-15T23:17:20.729Z,99215.83
2018-12-15T23:19:48.350Z,99232.05
2018-12-15T23:22:16.418Z,99228.55
2018-12-15T23:24:43.408Z,99235.41
2018-12-15T23:27:10.870Z,99229.84
2018-12-15T23:29:39.210Z,99213.94
2018-12-15T23:32:06.703Z,99206.24
2018-12-15T23:34:34.201Z,99199.94
2018-12-15T23:37:01.598Z,99204.61
2018-12-15T23:39:29.046Z,99203.42
2018-12-15T23:41:56.470Z,99196.81
2018-12-15T23:44:23.922Z,99200.80
2018-12-15T23:46:51.383Z,99196.61
2018-12-15T23:49:18.802Z,99198.13
2018-12-15T23:51:46.214Z,99198.70
2018-12-15T23:54:13.657Z,99207.03
2018-12-15T23:56:41.102Z,99213.09
2018-12-15T23:59:08.519Z,99219.88
